sensor_id;sensor_type;location;lat;lon;timestamp;temperature;humidity
71208;DHT22;58938;49.868;8.646;2022-11-28T00:03:48;10.20;59.80
71208;DHT22;58938;49.868;8.646;2022-11-28T00:06:14;10.20;59.70
71208;DHT22;58938;49.868;8.646;2022-11-28T00:08:40;10.20;59.70
71208;DHT22;58938;49.868;8.646;2022-11-28T00:11:08;10.10;59.70
71208;DHT22;58938;49.868;8.646;2022-11-28T00:13:34;10.10;59.60
71208;DHT22;58938;49.868;8.646;2022-11-28T00:16:03;10.10;59.50
71208;DHT22;58938;49.868;8.646;2022-11-28T00:18:29;10.10;59.50
71208;DHT22;58938;49.868;8.646;2022-11-28T00:21:08;10.10;59.50
71208;DHT22;58938;49.868;8.646;2022-11-28T00:23:35;10.10;59.40
71208;DHT22;58938;49.868;8.646;2022-11-28T00:26:05;10.10;59.50
71208;DHT22;58938;49.868;8.646;2022-11-28T00:28:31;10.10;59.30
71208;DHT22;58938;49.868;8.646;2022-11-28T00:30:58;10.10;59.30
71208;DHT22;58938;49.868;8.646;2022-11-28T00:33:26;10.10;59.30
71208;DHT22;58938;49.868;8.646;2022-11-28T00:35:58;10.10;59.30
71208;DHT22;58938;49.868;8.646;2022-11-28T00:38:24;10.10;59.20
71208;DHT22;58938;49.868;8.646;2022-11-28T00:40:57;10.10;59.20
71208;DHT22;58938;49.868;8.646;2022-11-28T00:43:23;10.10;59.10
71208;DHT22;58938;49.868;8.646;2022-11-28T00:45:49;10.10;59.10
71208;DHT22;58938;49.868;8.646;2022-11-28T00:48:15;10.10;59.00
71208;DHT22;58938;49.868;8.646;2022-11-28T00:50:40;10.10;59.00
71208;DHT22;58938;49.868;8.646;2022-11-28T00:53:06;10.10;59.00
71208;DHT22;58938;49.868;8.646;2022-11-28T00:55:31;10.00;59.00
71208;DHT22;58938;49.868;8.646;2022-11-28T00:57:57;10.00;58.90
71208;DHT22;58938;49.868;8.646;2022-11-28T01:00:22;10.00;58.90
71208;DHT22;58938;49.868;8.646;2022-11-28T01:02:56;10.00;58.90
71208;DHT22;58938;49.868;8.646;2022-11-28T01:05:22;10.00;58.70
71208;DHT22;58938;49.868;8.646;2022-11-28T01:07:49;10.00;58.70
71208;DHT22;58938;49.868;8.646;2022-11-28T01:10:14;9.90;58.70
71208;DHT22;58938;49.868;8.646;2022-11-28T01:12:42;9.90;58.70
71208;DHT22;58938;49.868;8.646;2022-11-28T01:15:11;10.00;58.70
71208;DHT22;58938;49.868;8.646;2022-11-28T01:17:38;9.90;58.60
71208;DHT22;58938;49.868;8.646;2022-11-28T01:20:06;9.90;58.50
71208;DHT22;58938;49.868;8.646;2022-11-28T01:22:32;9.90;58.50
71208;DHT22;58938;49.868;8.646;2022-11-28T01:24:57;9.90;58.50
71208;DHT22;58938;49.868;8.646;2022-11-28T01:27:25;9.90;58.50
71208;DHT22;58938;49.868;8.646;2022-11-28T01:29:51;9.90;58.50
71208;DHT22;58938;49.868;8.646;2022-11-28T01:32:17;9.90;58.50
71208;DHT22;58938;49.868;8.646;2022-11-28T01:34:45;9.90;58.50
71208;DHT22;58938;49.868;8.646;2022-11-28T01:37:11;9.90;58.40
71208;DHT22;58938;49.868;8.646;2022-11-28T01:39:37;9.90;58.40
71208;DHT22;58938;49.868;8.646;2022-11-28T01:42:03;9.90;58.30
71208;DHT22;58938;49.868;8.646;2022-11-28T01:46:54;9.90;58.40
71208;DHT22;58938;49.868;8.646;2022-11-28T01:49:27;9.90;58.40
71208;DHT22;58938;49.868;8.646;2022-11-28T01:51:58;9.90;58.40
71208;DHT22;58938;49.868;8.646;2022-11-28T01:54:26;9.90;58.30
71208;DHT22;58938;49.868;8.646;2022-11-28T01:56:58;9.90;58.30
71208;DHT22;58938;49.868;8.646;2022-11-28T01:59:31;9.90;58.30
71208;DHT22;58938;49.868;8.646;2022-11-28T02:01:58;9.80;58.20
71208;DHT22;58938;49.868;8.646;2022-11-28T02:04:25;9.80;58.20
71208;DHT22;58938;49.868;8.646;2022-11-28T02:06:52;9.80;58.20
71208;DHT22;58938;49.868;8.646;2022-11-28T02:09:17;9.80;58.30
71208;DHT22;58938;49.868;8.646;2022-11-28T02:29:08;9.80;58.30
71208;DHT22;58938;49.868;8.646;2022-11-28T02:34:39;9.80;58.30
71208;DHT22;58938;49.868;8.646;2022-11-28T02:40:14;9.80;58.30
71208;DHT22;58938;49.868;8.646;2022-11-28T02:43:10;9.80;58.30
71208;DHT22;58938;49.868;8.646;2022-11-28T02:46:06;9.80;58.30
71208;DHT22;58938;49.868;8.646;2022-11-28T02:48:44;9.80;58.30
71208;DHT22;58938;49.868;8.646;2022-11-28T02:53:54;9.70;58.40
71208;DHT22;58938;49.868;8.646;2022-11-28T02:56:23;9.70;58.40
71208;DHT22;58938;49.868;8.646;2022-11-28T02:58:51;9.70;58.40
71208;DHT22;58938;49.868;8.646;2022-11-28T03:01:30;9.80;58.40
71208;DHT22;58938;49.868;8.646;2022-11-28T03:12:50;9.70;58.40
71208;DHT22;58938;49.868;8.646;2022-11-28T03:15:25;9.70;58.40
71208;DHT22;58938;49.868;8.646;2022-11-28T03:21:06;9.70;58.50
71208;DHT22;58938;49.868;8.646;2022-11-28T03:25:54;9.70;58.60
71208;DHT22;58938;49.868;8.646;2022-11-28T03:28:37;9.70;58.50
71208;DHT22;58938;49.868;8.646;2022-11-28T03:31:24;9.70;58.60
71208;DHT22;58938;49.868;8.646;2022-11-28T03:33:56;9.70;58.50
71208;DHT22;58938;49.868;8.646;2022-11-28T03:36:26;9.70;58.60
71208;DHT22;58938;49.868;8.646;2022-11-28T03:39:02;9.70;58.60
71208;DHT22;58938;49.868;8.646;2022-11-28T03:41:38;9.70;58.50
71208;DHT22;58938;49.868;8.646;2022-11-28T03:44:17;9.70;58.50
71208;DHT22;58938;49.868;8.646;2022-11-28T03:46:46;9.70;58.50
71208;DHT22;58938;49.868;8.646;2022-11-28T03:49:17;9.70;58.50
71208;DHT22;58938;49.868;8.646;2022-11-28T03:51:56;9.70;58.50
71208;DHT22;58938;49.868;8.646;2022-11-28T03:54:28;9.70;58.50
71208;DHT22;58938;49.868;8.646;2022-11-28T03:59:36;9.70;58.50
71208;DHT22;58938;49.868;8.646;2022-11-28T04:02:20;9.70;58.40
71208;DHT22;58938;49.868;8.646;2022-11-28T04:10:41;9.60;58.40
71208;DHT22;58938;49.868;8.646;2022-11-28T04:13:31;9.60;58.30
71208;DHT22;58938;49.868;8.646;2022-11-28T04:16:12;9.60;58.30
71208;DHT22;58938;49.868;8.646;2022-11-28T04:18:56;9.60;58.30
71208;DHT22;58938;49.868;8.646;2022-11-28T04:21:39;9.60;58.40
71208;DHT22;58938;49.868;8.646;2022-11-28T04:24:28;9.60;58.40
71208;DHT22;58938;49.868;8.646;2022-11-28T04:27:08;9.60;58.40
71208;DHT22;58938;49.868;8.646;2022-11-28T04:29:47;9.60;58.40
71208;DHT22;58938;49.868;8.646;2022-11-28T04:32:15;9.60;58.30
71208;DHT22;58938;49.868;8.646;2022-11-28T04:34:46;9.60;58.30
71208;DHT22;58938;49.868;8.646;2022-11-28T04:37:14;9.60;58.30
71208;DHT22;58938;49.868;8.646;2022-11-28T04:39:44;9.60;58.30
71208;DHT22;58938;49.868;8.646;2022-11-28T04:42:34;9.60;58.30
71208;DHT22;58938;49.868;8.646;2022-11-28T04:45:13;9.50;58.20
71208;DHT22;58938;49.868;8.646;2022-11-28T04:47:43;9.50;58.30
71208;DHT22;58938;49.868;8.646;2022-11-28T04:50:10;9.50;58.40
71208;DHT22;58938;49.868;8.646;2022-11-28T04:55:43;9.60;58.30
71208;DHT22;58938;49.868;8.646;2022-11-28T04:58:25;9.50;58.30
71208;DHT22;58938;49.868;8.646;2022-11-28T05:00:53;9.60;58.40
71208;DHT22;58938;49.868;8.646;2022-11-28T05:03:20;9.60;58.40
71208;DHT22;58938;49.868;8.646;2022-11-28T05:05:48;9.60;58.30
71208;DHT22;58938;49.868;8.646;2022-11-28T05:08:14;9.60;58.30
71208;DHT22;58938;49.868;8.646;2022-11-28T05:10:41;9.60;58.30
71208;DHT22;58938;49.868;8.646;2022-11-28T05:13:06;9.60;58.30
71208;DHT22;58938;49.868;8.646;2022-11-28T05:15:32;9.60;58.30
71208;DHT22;58938;49.868;8.646;2022-11-28T05:17:58;9.60;58.30
71208;DHT22;58938;49.868;8.646;2022-11-28T05:20:23;9.60;58.30
71208;DHT22;58938;49.868;8.646;2022-11-28T05:22:49;9.60;58.30
71208;DHT22;58938;49.868;8.646;2022-11-28T05:25:16;9.60;58.30
71208;DHT22;58938;49.868;8.646;2022-11-28T05:27:45;9.60;58.30
71208;DHT22;58938;49.868;8.646;2022-11-28T05:30:13;9.60;58.30
71208;DHT22;58938;49.868;8.646;2022-11-28T05:32:39;9.60;58.30
71208;DHT22;58938;49.868;8.646;2022-11-28T05:35:05;9.60;58.30
71208;DHT22;58938;49.868;8.646;2022-11-28T05:37:31;9.60;58.30
71208;DHT22;58938;49.868;8.646;2022-11-28T05:39:56;9.60;58.30
71208;DHT22;58938;49.868;8.646;2022-11-28T05:42:22;9.60;58.30
71208;DHT22;58938;49.868;8.646;2022-11-28T05:44:50;9.60;58.40
71208;DHT22;58938;49.868;8.646;2022-11-28T05:47:16;9.60;58.40
71208;DHT22;58938;49.868;8.646;2022-11-28T05:49:42;9.60;58.40
71208;DHT22;58938;49.868;8.646;2022-11-28T05:52:07;9.70;58.40
71208;DHT22;58938;49.868;8.646;2022-11-28T05:54:33;9.60;58.40
71208;DHT22;58938;49.868;8.646;2022-11-28T05:56:59;9.70;58.40
71208;DHT22;58938;49.868;8.646;2022-11-28T05:59:24;9.60;58.40
71208;DHT22;58938;49.868;8.646;2022-11-28T06:01:53;9.60;58.30
71208;DHT22;58938;49.868;8.646;2022-11-28T06:04:19;9.60;58.20
71208;DHT22;58938;49.868;8.646;2022-11-28T06:06:44;9.60;58.20
71208;DHT22;58938;49.868;8.646;2022-11-28T06:09:10;9.60;58.20
71208;DHT22;58938;49.868;8.646;2022-11-28T06:11:35;9.50;58.20
71208;DHT22;58938;49.868;8.646;2022-11-28T06:14:01;9.50;58.20
71208;DHT22;58938;49.868;8.646;2022-11-28T06:16:28;9.50;58.20
71208;DHT22;58938;49.868;8.646;2022-11-28T06:18:56;9.50;58.30
71208;DHT22;58938;49.868;8.646;2022-11-28T06:21:23;9.50;58.40
71208;DHT22;58938;49.868;8.646;2022-11-28T06:24:08;9.50;58.40
71208;DHT22;58938;49.868;8.646;2022-11-28T06:26:34;9.60;58.50
71208;DHT22;58938;49.868;8.646;2022-11-28T06:28:59;9.50;58.50
71208;DHT22;58938;49.868;8.646;2022-11-28T06:31:27;9.50;58.50
71208;DHT22;58938;49.868;8.646;2022-11-28T06:33:55;9.50;58.50
71208;DHT22;58938;49.868;8.646;2022-11-28T06:36:21;9.50;58.60
71208;DHT22;58938;49.868;8.646;2022-11-28T06:38:50;9.50;58.60
71208;DHT22;58938;49.868;8.646;2022-11-28T06:41:18;9.60;58.70
71208;DHT22;58938;49.868;8.646;2022-11-28T06:43:45;9.60;58.70
71208;DHT22;58938;49.868;8.646;2022-11-28T06:46:12;9.60;58.70
71208;DHT22;58938;49.868;8.646;2022-11-28T06:48:40;9.60;58.70
71208;DHT22;58938;49.868;8.646;2022-11-28T06:51:06;9.60;58.70
71208;DHT22;58938;49.868;8.646;2022-11-28T06:53:33;9.60;58.70
71208;DHT22;58938;49.868;8.646;2022-11-28T06:56:07;9.60;58.80
71208;DHT22;58938;49.868;8.646;2022-11-28T06:58:33;9.60;58.70
71208;DHT22;58938;49.868;8.646;2022-11-28T07:01:23;9.60;58.60
71208;DHT22;58938;49.868;8.646;2022-11-28T07:03:49;9.60;58.60
71208;DHT22;58938;49.868;8.646;2022-11-28T07:06:17;9.60;58.70
71208;DHT22;58938;49.868;8.646;2022-11-28T07:08:46;9.60;58.60
71208;DHT22;58938;49.868;8.646;2022-11-28T07:11:18;9.60;58.60
71208;DHT22;58938;49.868;8.646;2022-11-28T07:13:44;9.50;58.60
71208;DHT22;58938;49.868;8.646;2022-11-28T07:16:19;9.60;58.70
71208;DHT22;58938;49.868;8.646;2022-11-28T07:18:45;9.60;58.60
71208;DHT22;58938;49.868;8.646;2022-11-28T07:21:11;9.60;58.50
71208;DHT22;58938;49.868;8.646;2022-11-28T07:23:41;9.50;58.60
71208;DHT22;58938;49.868;8.646;2022-11-28T07:26:11;9.60;58.60
71208;DHT22;58938;49.868;8.646;2022-11-28T07:28:37;9.60;58.50
71208;DHT22;58938;49.868;8.646;2022-11-28T07:31:21;9.60;58.60
71208;DHT22;58938;49.868;8.646;2022-11-28T07:33:50;9.60;58.60
71208;DHT22;58938;49.868;8.646;2022-11-28T07:36:21;9.60;58.70
71208;DHT22;58938;49.868;8.646;2022-11-28T07:38:48;9.60;58.70
71208;DHT22;58938;49.868;8.646;2022-11-28T07:41:14;9.60;58.70
71208;DHT22;58938;49.868;8.646;2022-11-28T07:43:41;9.60;58.70
71208;DHT22;58938;49.868;8.646;2022-11-28T07:46:09;9.60;58.80
71208;DHT22;58938;49.868;8.646;2022-11-28T07:48:36;9.60;58.80
71208;DHT22;58938;49.868;8.646;2022-11-28T07:51:10;9.60;58.80
71208;DHT22;58938;49.868;8.646;2022-11-28T07:53:36;9.60;58.90
71208;DHT22;58938;49.868;8.646;2022-11-28T07:56:04;9.60;58.90
71208;DHT22;58938;49.868;8.646;2022-11-28T07:58:29;9.70;59.00
71208;DHT22;58938;49.868;8.646;2022-11-28T08:00:55;9.70;59.00
71208;DHT22;58938;49.868;8.646;2022-11-28T08:03:21;9.70;59.00
71208;DHT22;58938;49.868;8.646;2022-11-28T08:05:47;9.70;59.00
71208;DHT22;58938;49.868;8.646;2022-11-28T08:08:17;9.70;59.10
71208;DHT22;58938;49.868;8.646;2022-11-28T08:10:46;9.60;59.10
71208;DHT22;58938;49.868;8.646;2022-11-28T08:13:12;9.60;59.20
71208;DHT22;58938;49.868;8.646;2022-11-28T08:15:39;9.60;59.20
71208;DHT22;58938;49.868;8.646;2022-11-28T08:18:06;9.60;59.40
71208;DHT22;58938;49.868;8.646;2022-11-28T08:20:34;9.60;59.40
71208;DHT22;58938;49.868;8.646;2022-11-28T08:23:00;9.70;59.50
71208;DHT22;58938;49.868;8.646;2022-11-28T08:25:26;9.70;59.50
71208;DHT22;58938;49.868;8.646;2022-11-28T08:27:54;9.60;59.50
71208;DHT22;58938;49.868;8.646;2022-11-28T08:30:19;9.70;59.60
71208;DHT22;58938;49.868;8.646;2022-11-28T08:32:45;9.70;59.60
71208;DHT22;58938;49.868;8.646;2022-11-28T08:35:11;9.70;59.60
71208;DHT22;58938;49.868;8.646;2022-11-28T08:37:36;9.70;59.70
71208;DHT22;58938;49.868;8.646;2022-11-28T08:40:02;9.70;59.70
71208;DHT22;58938;49.868;8.646;2022-11-28T08:42:28;9.70;59.70
71208;DHT22;58938;49.868;8.646;2022-11-28T08:44:56;9.70;59.80
71208;DHT22;58938;49.868;8.646;2022-11-28T08:47:24;9.70;59.80
71208;DHT22;58938;49.868;8.646;2022-11-28T08:49:49;9.70;59.80
71208;DHT22;58938;49.868;8.646;2022-11-28T08:52:15;9.70;59.80
71208;DHT22;58938;49.868;8.646;2022-11-28T08:54:42;9.70;59.80
71208;DHT22;58938;49.868;8.646;2022-11-28T08:57:08;9.70;59.80
71208;DHT22;58938;49.868;8.646;2022-11-28T08:59:33;9.80;59.70
71208;DHT22;58938;49.868;8.646;2022-11-28T09:01:59;9.70;59.70
71208;DHT22;58938;49.868;8.646;2022-11-28T09:04:25;9.70;59.70
71208;DHT22;58938;49.868;8.646;2022-11-28T09:06:50;9.70;59.60
71208;DHT22;58938;49.868;8.646;2022-11-28T09:09:17;9.70;59.60
71208;DHT22;58938;49.868;8.646;2022-11-28T09:11:43;9.60;59.70
71208;DHT22;58938;49.868;8.646;2022-11-28T09:14:09;9.60;59.80
71208;DHT22;58938;49.868;8.646;2022-11-28T09:16:36;9.60;59.80
71208;DHT22;58938;49.868;8.646;2022-11-28T09:19:01;9.60;59.90
71208;DHT22;58938;49.868;8.646;2022-11-28T09:21:27;9.60;59.90
71208;DHT22;58938;49.868;8.646;2022-11-28T09:23:54;9.70;59.90
71208;DHT22;58938;49.868;8.646;2022-11-28T09:26:23;9.70;60.00
71208;DHT22;58938;49.868;8.646;2022-11-28T09:28:50;9.70;60.00
71208;DHT22;58938;49.868;8.646;2022-11-28T09:31:17;9.70;60.00
71208;DHT22;58938;49.868;8.646;2022-11-28T09:33:45;9.80;60.00
71208;DHT22;58938;49.868;8.646;2022-11-28T09:36:13;9.80;60.00
71208;DHT22;58938;49.868;8.646;2022-11-28T09:38:39;9.80;60.00
71208;DHT22;58938;49.868;8.646;2022-11-28T09:43:54;9.80;60.00
71208;DHT22;58938;49.868;8.646;2022-11-28T09:46:28;9.80;60.10
71208;DHT22;58938;49.868;8.646;2022-11-28T09:49:00;9.90;60.20
71208;DHT22;58938;49.868;8.646;2022-11-28T09:51:46;9.90;60.20
71208;DHT22;58938;49.868;8.646;2022-11-28T09:57:12;10.00;60.20
71208;DHT22;58938;49.868;8.646;2022-11-28T09:59:40;10.00;60.30
71208;DHT22;58938;49.868;8.646;2022-11-28T10:02:39;10.00;60.30
71208;DHT22;58938;49.868;8.646;2022-11-28T10:05:34;10.00;60.40
71208;DHT22;58938;49.868;8.646;2022-11-28T10:13:29;10.00;60.40
71208;DHT22;58938;49.868;8.646;2022-11-28T10:18:39;10.10;60.50
71208;DHT22;58938;49.868;8.646;2022-11-28T10:24:03;10.10;60.70
71208;DHT22;58938;49.868;8.646;2022-11-28T10:26:38;10.10;60.80
71208;DHT22;58938;49.868;8.646;2022-11-28T10:31:46;10.10;60.80
71208;DHT22;58938;49.868;8.646;2022-11-28T10:34:23;10.20;60.90
71208;DHT22;58938;49.868;8.646;2022-11-28T10:36:59;10.20;60.90
71208;DHT22;58938;49.868;8.646;2022-11-28T10:39:25;10.20;60.90
71208;DHT22;58938;49.868;8.646;2022-11-28T10:50:46;10.20;61.00
71208;DHT22;58938;49.868;8.646;2022-11-28T10:56:25;10.20;61.10
71208;DHT22;58938;49.868;8.646;2022-11-28T11:01:43;10.30;61.10
71208;DHT22;58938;49.868;8.646;2022-11-28T11:04:23;10.30;61.20
71208;DHT22;58938;49.868;8.646;2022-11-28T11:09:42;10.30;61.30
71208;DHT22;58938;49.868;8.646;2022-11-28T11:12:18;10.40;61.40
71208;DHT22;58938;49.868;8.646;2022-11-28T11:14:45;10.40;61.40
71208;DHT22;58938;49.868;8.646;2022-11-28T11:17:34;10.40;61.50
71208;DHT22;58938;49.868;8.646;2022-11-28T11:20:31;10.40;61.60
71208;DHT22;58938;49.868;8.646;2022-11-28T11:23:20;10.40;61.80
71208;DHT22;58938;49.868;8.646;2022-11-28T11:25:54;10.40;61.90
71208;DHT22;58938;49.868;8.646;2022-11-28T11:30:58;10.40;62.20
71208;DHT22;58938;49.868;8.646;2022-11-28T11:33:32;10.40;62.50
71208;DHT22;58938;49.868;8.646;2022-11-28T11:35:59;10.40;62.60
71208;DHT22;58938;49.868;8.646;2022-11-28T11:38:29;10.50;62.80
71208;DHT22;58938;49.868;8.646;2022-11-28T11:40:55;10.50;62.90
71208;DHT22;58938;49.868;8.646;2022-11-28T11:48:37;10.50;63.40
71208;DHT22;58938;49.868;8.646;2022-11-28T11:51:04;10.50;63.50
71208;DHT22;58938;49.868;8.646;2022-11-28T11:53:30;10.50;63.70
71208;DHT22;58938;49.868;8.646;2022-11-28T11:55:59;10.60;63.80
71208;DHT22;58938;49.868;8.646;2022-11-28T11:58:38;10.60;63.90
71208;DHT22;58938;49.868;8.646;2022-11-28T12:01:06;10.60;64.10
71208;DHT22;58938;49.868;8.646;2022-11-28T12:03:51;10.60;64.20
71208;DHT22;58938;49.868;8.646;2022-11-28T12:06:24;10.60;64.30
71208;DHT22;58938;49.868;8.646;2022-11-28T12:08:54;10.70;64.40
71208;DHT22;58938;49.868;8.646;2022-11-28T12:11:28;10.70;64.70
71208;DHT22;58938;49.868;8.646;2022-11-28T12:14:15;10.70;64.60
71208;DHT22;58938;49.868;8.646;2022-11-28T12:30:49;10.70;65.00
71208;DHT22;58938;49.868;8.646;2022-11-28T12:36:18;10.80;65.10
71208;DHT22;58938;49.868;8.646;2022-11-28T12:39:09;10.80;65.20
71208;DHT22;58938;49.868;8.646;2022-11-28T12:52:16;10.80;65.70
71208;DHT22;58938;49.868;8.646;2022-11-28T12:54:51;10.80;65.80
71208;DHT22;58938;49.868;8.646;2022-11-28T12:57:47;10.80;65.90
71208;DHT22;58938;49.868;8.646;2022-11-28T13:00:19;10.70;66.20
71208;DHT22;58938;49.868;8.646;2022-11-28T13:03:01;10.70;66.40
71208;DHT22;58938;49.868;8.646;2022-11-28T13:05:56;10.70;66.50
71208;DHT22;58938;49.868;8.646;2022-11-28T13:08:28;10.70;66.70
71208;DHT22;58938;49.868;8.646;2022-11-28T13:13:40;10.70;66.80
71208;DHT22;58938;49.868;8.646;2022-11-28T13:19:01;10.70;67.00
71208;DHT22;58938;49.868;8.646;2022-11-28T13:27:43;10.70;67.20
71208;DHT22;58938;49.868;8.646;2022-11-28T13:30:23;10.70;67.30
71208;DHT22;58938;49.868;8.646;2022-11-28T13:35:18;10.70;67.40
71208;DHT22;58938;49.868;8.646;2022-11-28T13:37:55;10.70;67.50
71208;DHT22;58938;49.868;8.646;2022-11-28T13:40:34;10.70;67.70
71208;DHT22;58938;49.868;8.646;2022-11-28T13:46:12;10.80;67.80
71208;DHT22;58938;49.868;8.646;2022-11-28T13:51:18;10.80;67.90
71208;DHT22;58938;49.868;8.646;2022-11-28T13:53:45;10.90;67.90
71208;DHT22;58938;49.868;8.646;2022-11-28T13:56:22;10.90;68.00
71208;DHT22;58938;49.868;8.646;2022-11-28T13:59:00;10.90;68.10
71208;DHT22;58938;49.868;8.646;2022-11-28T14:01:47;10.90;68.10
71208;DHT22;58938;49.868;8.646;2022-11-28T14:04:18;10.90;68.10
71208;DHT22;58938;49.868;8.646;2022-11-28T14:06:47;10.90;68.20
71208;DHT22;58938;49.868;8.646;2022-11-28T14:23:21;11.00;68.60
71208;DHT22;58938;49.868;8.646;2022-11-28T14:25:50;11.00;68.50
71208;DHT22;58938;49.868;8.646;2022-11-28T14:28:27;11.00;68.60
71208;DHT22;58938;49.868;8.646;2022-11-28T14:31:03;11.10;68.60
71208;DHT22;58938;49.868;8.646;2022-11-28T14:33:40;11.10;68.70
71208;DHT22;58938;49.868;8.646;2022-11-28T14:36:28;11.10;68.70
71208;DHT22;58938;49.868;8.646;2022-11-28T14:52:42;11.10;68.80
71208;DHT22;58938;49.868;8.646;2022-11-28T14:57:57;11.00;68.80
71208;DHT22;58938;49.868;8.646;2022-11-28T15:00:37;11.10;68.90
71208;DHT22;58938;49.868;8.646;2022-11-28T15:03:34;11.10;68.90
71208;DHT22;58938;49.868;8.646;2022-11-28T15:06:12;11.00;68.90
71208;DHT22;58938;49.868;8.646;2022-11-28T15:14:24;11.10;69.00
71208;DHT22;58938;49.868;8.646;2022-11-28T15:16:54;11.10;69.10
71208;DHT22;58938;49.868;8.646;2022-11-28T15:19:26;11.10;69.10
71208;DHT22;58938;49.868;8.646;2022-11-28T15:21:58;11.10;69.10
71208;DHT22;58938;49.868;8.646;2022-11-28T15:24:35;11.10;69.10
71208;DHT22;58938;49.868;8.646;2022-11-28T15:27:15;11.10;69.10
71208;DHT22;58938;49.868;8.646;2022-11-28T15:30:00;11.10;69.10
71208;DHT22;58938;49.868;8.646;2022-11-28T15:32:29;11.10;69.10
71208;DHT22;58938;49.868;8.646;2022-11-28T15:35:03;11.10;69.10
71208;DHT22;58938;49.868;8.646;2022-11-28T15:37:33;11.10;69.10
71208;DHT22;58938;49.868;8.646;2022-11-28T15:40:00;11.10;69.10
71208;DHT22;58938;49.868;8.646;2022-11-28T15:42:33;11.10;69.20
71208;DHT22;58938;49.868;8.646;2022-11-28T15:45:04;11.10;69.20
71208;DHT22;58938;49.868;8.646;2022-11-28T15:47:32;11.10;69.30
71208;DHT22;58938;49.868;8.646;2022-11-28T15:52:36;11.10;69.20
71208;DHT22;58938;49.868;8.646;2022-11-28T15:55:02;11.10;69.30
71208;DHT22;58938;49.868;8.646;2022-11-28T15:57:28;11.10;69.30
71208;DHT22;58938;49.868;8.646;2022-11-28T15:59:56;11.10;69.30
71208;DHT22;58938;49.868;8.646;2022-11-28T16:02:41;11.10;69.30
71208;DHT22;58938;49.868;8.646;2022-11-28T16:05:10;11.10;69.30
71208;DHT22;58938;49.868;8.646;2022-11-28T16:07:43;11.10;69.30
71208;DHT22;58938;49.868;8.646;2022-11-28T16:10:36;11.10;69.30
71208;DHT22;58938;49.868;8.646;2022-11-28T16:13:08;11.10;69.40
71208;DHT22;58938;49.868;8.646;2022-11-28T16:15:35;11.10;69.40
71208;DHT22;58938;49.868;8.646;2022-11-28T16:18:01;11.10;69.40
71208;DHT22;58938;49.868;8.646;2022-11-28T16:20:32;11.10;69.40
71208;DHT22;58938;49.868;8.646;2022-11-28T16:23:05;11.10;69.40
71208;DHT22;58938;49.868;8.646;2022-11-28T16:25:31;11.00;69.40
71208;DHT22;58938;49.868;8.646;2022-11-28T16:27:57;11.10;69.50
71208;DHT22;58938;49.868;8.646;2022-11-28T16:30:25;11.00;69.40
71208;DHT22;58938;49.868;8.646;2022-11-28T16:32:52;11.00;69.50
71208;DHT22;58938;49.868;8.646;2022-11-28T16:35:34;11.10;69.50
71208;DHT22;58938;49.868;8.646;2022-11-28T16:38:19;11.10;69.50
71208;DHT22;58938;49.868;8.646;2022-11-28T16:40:46;11.10;69.50
71208;DHT22;58938;49.868;8.646;2022-11-28T16:43:28;11.10;69.50
71208;DHT22;58938;49.868;8.646;2022-11-28T16:46:00;11.10;69.50
71208;DHT22;58938;49.868;8.646;2022-11-28T16:48:28;11.10;69.50
71208;DHT22;58938;49.868;8.646;2022-11-28T16:58:56;11.10;69.50
71208;DHT22;58938;49.868;8.646;2022-11-28T17:01:23;11.10;69.60
71208;DHT22;58938;49.868;8.646;2022-11-28T17:03:51;11.10;69.50
71208;DHT22;58938;49.868;8.646;2022-11-28T17:06:31;11.10;69.50
71208;DHT22;58938;49.868;8.646;2022-11-28T17:09:05;11.10;69.60
71208;DHT22;58938;49.868;8.646;2022-11-28T17:11:33;11.10;69.50
71208;DHT22;58938;49.868;8.646;2022-11-28T17:14:01;11.10;69.50
71208;DHT22;58938;49.868;8.646;2022-11-28T17:16:29;11.10;69.50
71208;DHT22;58938;49.868;8.646;2022-11-28T17:18:55;11.10;69.50
71208;DHT22;58938;49.868;8.646;2022-11-28T17:21:50;11.10;69.50
71208;DHT22;58938;49.868;8.646;2022-11-28T17:24:23;11.10;69.60
71208;DHT22;58938;49.868;8.646;2022-11-28T17:26:50;11.10;69.50
71208;DHT22;58938;49.868;8.646;2022-11-28T17:29:16;11.10;69.50
71208;DHT22;58938;49.868;8.646;2022-11-28T17:31:43;11.10;69.50
71208;DHT22;58938;49.868;8.646;2022-11-28T17:34:25;11.10;69.50
71208;DHT22;58938;49.868;8.646;2022-11-28T17:36:51;11.00;69.50
71208;DHT22;58938;49.868;8.646;2022-11-28T17:39:17;11.10;69.60
71208;DHT22;58938;49.868;8.646;2022-11-28T17:41:44;11.00;69.50
71208;DHT22;58938;49.868;8.646;2022-11-28T17:44:19;11.10;69.60
71208;DHT22;58938;49.868;8.646;2022-11-28T17:46:45;11.00;69.60
71208;DHT22;58938;49.868;8.646;2022-11-28T17:49:10;11.10;69.50
71208;DHT22;58938;49.868;8.646;2022-11-28T17:51:37;11.00;69.60
71208;DHT22;58938;49.868;8.646;2022-11-28T17:54:02;11.10;69.60
71208;DHT22;58938;49.868;8.646;2022-11-28T17:56:28;11.10;69.50
71208;DHT22;58938;49.868;8.646;2022-11-28T17:58:55;11.00;69.50
71208;DHT22;58938;49.868;8.646;2022-11-28T18:01:26;11.00;69.50
71208;DHT22;58938;49.868;8.646;2022-11-28T18:03:52;11.00;69.50
71208;DHT22;58938;49.868;8.646;2022-11-28T18:06:19;11.00;69.50
71208;DHT22;58938;49.868;8.646;2022-11-28T18:08:46;11.00;69.60
71208;DHT22;58938;49.868;8.646;2022-11-28T18:11:12;11.00;69.60
71208;DHT22;58938;49.868;8.646;2022-11-28T18:13:38;11.00;69.60
71208;DHT22;58938;49.868;8.646;2022-11-28T18:16:14;11.00;69.60
71208;DHT22;58938;49.868;8.646;2022-11-28T18:18:40;11.00;69.70
71208;DHT22;58938;49.868;8.646;2022-11-28T18:21:06;11.00;69.70
71208;DHT22;58938;49.868;8.646;2022-11-28T18:23:36;11.00;69.70
71208;DHT22;58938;49.868;8.646;2022-11-28T18:26:05;11.00;69.80
71208;DHT22;58938;49.868;8.646;2022-11-28T18:28:31;11.00;69.80
71208;DHT22;58938;49.868;8.646;2022-11-28T18:30:56;11.00;69.80
71208;DHT22;58938;49.868;8.646;2022-11-28T18:33:22;11.00;69.80
71208;DHT22;58938;49.868;8.646;2022-11-28T18:35:47;11.00;69.80
71208;DHT22;58938;49.868;8.646;2022-11-28T18:38:13;11.00;69.80
71208;DHT22;58938;49.868;8.646;2022-11-28T18:40:39;11.00;69.90
71208;DHT22;58938;49.868;8.646;2022-11-28T18:43:05;11.00;69.90
71208;DHT22;58938;49.868;8.646;2022-11-28T18:45:31;11.00;69.90
71208;DHT22;58938;49.868;8.646;2022-11-28T18:47:57;11.00;69.80
71208;DHT22;58938;49.868;8.646;2022-11-28T18:50:23;11.00;69.90
71208;DHT22;58938;49.868;8.646;2022-11-28T18:52:48;11.00;69.90
71208;DHT22;58938;49.868;8.646;2022-11-28T18:55:15;11.00;69.90
71208;DHT22;58938;49.868;8.646;2022-11-28T18:57:41;11.00;70.00
71208;DHT22;58938;49.868;8.646;2022-11-28T19:00:07;11.00;70.00
71208;DHT22;58938;49.868;8.646;2022-11-28T19:02:33;11.00;70.00
71208;DHT22;58938;49.868;8.646;2022-11-28T19:04:58;11.00;70.00
71208;DHT22;58938;49.868;8.646;2022-11-28T19:07:24;11.00;69.90
71208;DHT22;58938;49.868;8.646;2022-11-28T19:09:50;11.00;70.00
71208;DHT22;58938;49.868;8.646;2022-11-28T19:12:16;11.00;70.00
71208;DHT22;58938;49.868;8.646;2022-11-28T19:14:44;11.00;70.00